createdAt,value
2023-03-30T00:00:00.206Z,99794.53
2023-03-30T00:01:04.251Z,99797.90
2023-03-30T00:02:07.567Z,99792.82
2023-03-30T00:03:09.901Z,99797.90
2023-03-30T00:04:12.651Z,99790.16
2023-03-30T00:05:16.786Z,99789.34
2023-03-30T00:06:23.663Z,99795.37
2023-03-30T00:07:27.022Z,99807.20
2023-03-30T00:08:30.479Z,99794.42
2023-03-30T00:09:32.859Z,99802.00
2023-03-30T00:10:37.758Z,99802.84
2023-03-30T00:11:40.425Z,99800.30
2023-03-30T00:12:43.132Z,99796.03
2023-03-30T00:13:46.486Z,99796.91
2023-03-30T00:14:49.234Z,99794.35
2023-03-30T00:15:51.637Z,99789.28
2023-03-30T00:16:54.856Z,99795.29
2023-03-30T00:17:57.221Z,99794.51
2023-03-30T00:18:59.908Z,99795.34
2023-03-30T00:20:04.295Z,99785.92
2023-03-30T00:21:09.498Z,99789.34
2023-03-30T00:22:12.135Z,99792.85
2023-03-30T00:23:15.094Z,99782.66
2023-03-30T00:24:17.555Z,99782.66
2023-03-30T00:25:20.004Z,99795.37
2023-03-30T00:26:22.472Z,99794.47
2023-03-30T00:27:27.655Z,99802.97
2023-03-30T00:28:30.561Z,99797.00
2023-03-30T00:29:33.741Z,99802.10
2023-03-30T00:30:36.664Z,99796.09
2023-03-30T00:31:39.077Z,99801.20
2023-03-30T00:32:43.122Z,99802.00
2023-03-30T00:33:47.534Z,99784.15
2023-03-30T00:34:50.489Z,99792.67
2023-03-30T00:35:55.762Z,99785.02
2023-03-30T00:36:58.107Z,99801.13
2023-03-30T00:38:02.633Z,99800.22
2023-03-30T00:39:07.253Z,99789.19
2023-03-30T00:40:16.569Z,99794.28
2023-03-30T00:41:18.942Z,99790.02
2023-03-30T00:42:22.154Z,99790.89
2023-03-30T00:43:26.301Z,99794.31
2023-03-30T00:45:07.533Z,99796.87
2023-03-30T00:46:10.278Z,99799.42
2023-03-30T00:47:13.403Z,99800.25
2023-03-30T00:48:22.913Z,99799.34
2023-03-30T00:49:25.517Z,99790.75
2023-03-30T00:50:41.838Z,99797.59
2023-03-30T00:51:44.199Z,99800.98
2023-03-30T00:52:47.936Z,99797.59
2023-03-30T00:53:53.927Z,99797.55
2023-03-30T00:54:57.329Z,99794.13
2023-03-30T00:56:01.722Z,99789.78
2023-03-30T00:57:06.043Z,99789.78
2023-03-30T00:58:12.597Z,99800.09
2023-03-30T00:59:15.221Z,99806.08
2023-03-30T01:00:19.172Z,99811.92
2023-03-30T01:01:26.904Z,99807.66
2023-03-30T01:02:32.607Z,99807.67
2023-03-30T01:03:38.657Z,99814.48
2023-03-30T01:04:41.076Z,99813.55
2023-03-30T01:05:45.983Z,99807.74
2023-03-30T01:06:51.023Z,99813.68
2023-03-30T01:07:56.164Z,99810.34
2023-03-30T01:08:58.633Z,99804.41
2023-03-30T01:10:01.595Z,99811.17
2023-03-30T01:11:07.150Z,99819.70
2023-03-30T01:12:10.584Z,99812.97
2023-03-30T01:13:14.158Z,99817.98
2023-03-30T01:14:18.199Z,99818.83
2023-03-30T01:15:23.161Z,99818.02
2023-03-30T01:16:48.245Z,99823.09
2023-03-30T01:18:10.945Z,99819.58
2023-03-30T01:19:43.949Z,99819.57
2023-03-30T01:20:53.591Z,99822.11
2023-03-30T01:22:18.710Z,99828.09
2023-03-30T01:23:42.899Z,99819.61
2023-03-30T01:25:24.169Z,99825.59
2023-03-30T01:26:32.905Z,99827.17
2023-03-30T01:28:10.948Z,99820.36
2023-03-30T01:29:31.650Z,99823.08
2023-03-30T01:30:41.281Z,99828.05
2023-03-30T01:33:31.434Z,99838.25
2023-03-30T01:34:37.349Z,99842.41
2023-03-30T01:35:47.253Z,99831.34
2023-03-30T01:37:12.205Z,99829.68
2023-03-30T01:38:37.504Z,99837.36
2023-03-30T01:39:46.605Z,99830.56
2023-03-30T01:41:10.928Z,99835.61
2023-03-30T01:42:22.664Z,99833.05
2023-03-30T01:43:28.571Z,99846.72
2023-03-30T01:44:40.385Z,99843.34
2023-03-30T01:45:49.185Z,99842.55
2023-03-30T01:46:55.491Z,99847.56
2023-03-30T01:48:10.659Z,99845.00
2023-03-30T01:49:26.661Z,99846.77
2023-03-30T01:50:36.193Z,99846.72
2023-03-30T01:51:48.386Z,99850.09
2023-03-30T01:52:58.020Z,99845.79
2023-03-30T01:55:36.427Z,99849.36
2023-03-30T01:56:42.510Z,99851.86
2023-03-30T01:57:54.496Z,99858.73
2023-03-30T01:59:06.145Z,99855.34
2023-03-30T02:00:13.675Z,99855.39
2023-03-30T02:01:19.999Z,99854.47
2023-03-30T02:02:27.627Z,99862.11
2023-03-30T02:03:33.589Z,99853.63
2023-03-30T02:04:39.573Z,99864.75
2023-03-30T02:05:45.530Z,99854.47
2023-03-30T02:06:54.801Z,99853.49
2023-03-30T02:08:01.165Z,99860.34
2023-03-30T02:09:05.867Z,99856.03
2023-03-30T02:10:11.644Z,99855.16
2023-03-30T02:11:13.997Z,99863.63
2023-03-30T02:12:18.340Z,99853.34
2023-03-30T02:13:22.654Z,99860.97
2023-03-30T02:14:32.965Z,99863.48
2023-03-30T02:15:38.997Z,99863.52
2023-03-30T02:16:47.760Z,99863.73
2023-03-30T02:17:50.788Z,99873.00
2023-03-30T02:18:54.141Z,99875.58
2023-03-30T02:19:57.855Z,99873.88
2023-03-30T02:21:01.633Z,99870.45
2023-03-30T02:22:05.698Z,99873.87
2023-03-30T02:23:08.656Z,99870.44
2023-03-30T02:24:18.639Z,99864.45
2023-03-30T02:25:21.110Z,99868.77
2023-03-30T02:26:23.670Z,99872.25
2023-03-30T02:27:28.246Z,99873.94
2023-03-30T02:28:30.399Z,99870.59
2023-03-30T02:29:36.469Z,99870.59
2023-03-30T02:30:42.332Z,99880.68
2023-03-30T02:31:47.615Z,99878.14
2023-03-30T02:32:55.870Z,99880.63
2023-03-30T02:34:08.813Z,99884.06
2023-03-30T02:35:40.662Z,99881.52
2023-03-30T02:36:47.971Z,99877.20
2023-03-30T02:38:13.876Z,99890.73
2023-03-30T02:39:20.613Z,99883.97
2023-03-30T02:40:35.509Z,99882.30
2023-03-30T02:43:07.337Z,99879.02
2023-03-30T02:44:34.778Z,99871.22
2023-03-30T02:45:58.541Z,99872.89
2023-03-30T02:47:13.828Z,99872.11
2023-03-30T02:48:32.605Z,99872.88
2023-03-30T02:49:53.449Z,99872.06
2023-03-30T02:51:06.084Z,99868.62
2023-03-30T02:52:32.421Z,99876.27
2023-03-30T02:53:45.832Z,99871.22
2023-03-30T02:54:53.629Z,99877.20
2023-03-30T02:56:21.574Z,99885.73
2023-03-30T02:57:49.219Z,99880.68
2023-03-30T02:59:16.419Z,99885.88
2023-03-30T03:00:29.639Z,99884.16
2023-03-30T03:01:42.282Z,99890.05
2023-03-30T03:02:50.940Z,99892.55
2023-03-30T03:04:01.327Z,99890.81
2023-03-30T03:05:08.855Z,99892.48
2023-03-30T03:06:24.226Z,99900.97
2023-03-30T03:07:30.637Z,99906.89
2023-03-30T03:08:36.159Z,99895.83
2023-03-30T03:09:40.522Z,99897.42
2023-03-30T03:10:42.800Z,99903.46
2023-03-30T03:11:46.385Z,99906.02
2023-03-30T03:12:49.874Z,99904.28
2023-03-30T03:13:53.308Z,99916.20
2023-03-30T03:14:55.901Z,99914.54
2023-03-30T03:16:02.207Z,99905.22
2023-03-30T03:17:05.336Z,99915.53
2023-03-30T03:18:09.993Z,99922.50
2023-03-30T03:19:12.835Z,99914.91
2023-03-30T03:20:17.134Z,99914.17
2023-03-30T03:21:19.807Z,99917.51
2023-03-30T03:22:22.114Z,99918.23
2023-03-30T03:23:25.099Z,99920.73
2023-03-30T03:24:29.639Z,99916.41
2023-03-30T03:25:33.743Z,99916.47
2023-03-30T03:26:39.092Z,99924.22
2023-03-30T03:27:42.697Z,99923.29
2023-03-30T03:28:50.892Z,99928.38
2023-03-30T03:29:53.571Z,99925.00
2023-03-30T03:30:57.690Z,99915.74
2023-03-30T03:32:01.159Z,99923.39
2023-03-30T03:33:05.907Z,99921.58
2023-03-30T03:34:08.406Z,99927.56
2023-03-30T03:35:12.979Z,99918.19
2023-03-30T03:36:15.771Z,99930.98
2023-03-30T03:37:19.927Z,99926.66
2023-03-30T03:38:23.146Z,99936.69
2023-03-30T03:39:26.448Z,99923.89
2023-03-30T03:40:30.749Z,99931.49
2023-03-30T03:41:34.586Z,99924.73
2023-03-30T03:42:37.891Z,99923.91
2023-03-30T03:43:46.015Z,99931.64
2023-03-30T03:44:49.249Z,99927.49
2023-03-30T03:45:52.294Z,99928.53
2023-03-30T03:46:55.127Z,99924.22
2023-03-30T03:47:57.819Z,99929.17
2023-03-30T03:49:02.248Z,99924.00
2023-03-30T03:50:07.507Z,99922.19
2023-03-30T03:51:10.705Z,99922.16
2023-03-30T03:52:13.415Z,99931.49
2023-03-30T03:53:15.848Z,99931.49
2023-03-30T03:54:18.184Z,99931.66
2023-03-30T03:55:20.743Z,99917.91
2023-03-30T03:56:24.688Z,99932.37
2023-03-30T03:57:27.262Z,99935.81
2023-03-30T03:58:30.067Z,99936.56
2023-03-30T03:59:32.948Z,99933.08
2023-03-30T04:00:35.735Z,99933.91
2023-03-30T04:01:37.997Z,99935.64
2023-03-30T04:02:44.434Z,99927.98
2023-03-30T04:03:48.466Z,99934.86
2023-03-30T04:04:53.966Z,99934.02
2023-03-30T04:06:02.821Z,99923.78
2023-03-30T04:07:06.415Z,99920.33
2023-03-30T04:08:10.144Z,99927.99
2023-03-30T04:09:12.787Z,99937.40
2023-03-30T04:10:33.553Z,99929.77
2023-03-30T04:13:06.252Z,99928.16
2023-03-30T04:14:27.142Z,99934.84
2023-03-30T04:15:34.035Z,99926.34
2023-03-30T04:18:10.531Z,99932.48
2023-03-30T04:19:26.829Z,99935.93
2023-03-30T04:21:48.932Z,99936.03
2023-03-30T04:23:06.362Z,99934.04
2023-03-30T04:24:17.396Z,99938.29
2023-03-30T04:25:25.146Z,99935.80
2023-03-30T04:26:32.448Z,99942.51
2023-03-30T04:29:02.556Z,99942.68
2023-03-30T04:30:07.798Z,99940.89
2023-03-30T04:31:16.075Z,99936.64
2023-03-30T04:32:31.437Z,99931.48
2023-03-30T04:33:52.571Z,99942.63
2023-03-30T04:35:09.245Z,99955.36
2023-03-30T04:36:18.709Z,99947.66
2023-03-30T04:37:41.815Z,99946.83
2023-03-30T04:39:00.919Z,99946.89
2023-03-30T04:40:21.617Z,99945.22
2023-03-30T04:41:34.397Z,99952.22
2023-03-30T04:42:49.290Z,99948.05
2023-03-30T04:43:56.029Z,99956.54
2023-03-30T04:45:05.429Z,99957.25
2023-03-30T04:46:26.191Z,99942.84
2023-03-30T04:47:35.474Z,99950.48
2023-03-30T04:48:45.516Z,99947.99
2023-03-30T04:49:50.305Z,99941.08
2023-03-30T04:51:11.310Z,99950.50
2023-03-30T04:52:15.481Z,99950.54
2023-03-30T04:53:34.646Z,99953.09
2023-03-30T04:54:48.568Z,99955.60
2023-03-30T04:56:08.254Z,99958.97
2023-03-30T04:57:22.416Z,99953.77
2023-03-30T04:58:38.288Z,99957.19
2023-03-30T04:59:52.354Z,99957.92
2023-03-30T05:01:15.224Z,99961.34
2023-03-30T05:02:36.509Z,99954.77
2023-03-30T05:03:47.673Z,99959.87
2023-03-30T05:04:51.784Z,99960.68
2023-03-30T05:05:56.526Z,99962.35
2023-03-30T05:07:06.835Z,99952.98
2023-03-30T05:08:27.942Z,99952.32
2023-03-30T05:10:47.678Z,99968.66
2023-03-30T05:12:01.792Z,99959.19
2023-03-30T05:13:15.815Z,99969.44
2023-03-30T05:15:29.976Z,99961.88
2023-03-30T05:16:39.908Z,99962.67
2023-03-30T05:17:47.012Z,99960.16
2023-03-30T05:18:52.363Z,99959.28
2023-03-30T05:19:59.704Z,99967.08
2023-03-30T05:21:09.943Z,99960.25
2023-03-30T05:22:31.061Z,99969.72
2023-03-30T05:23:45.110Z,99966.41
2023-03-30T05:25:08.412Z,99966.23
2023-03-30T05:27:36.104Z,99969.59
2023-03-30T05:28:42.341Z,99962.66
2023-03-30T05:29:55.983Z,99958.41
2023-03-30T05:31:12.205Z,99962.67
2023-03-30T05:32:16.439Z,99973.80
2023-03-30T05:33:23.709Z,99962.77
2023-03-30T05:34:44.860Z,99966.10
2023-03-30T05:35:49.334Z,99966.98
2023-03-30T05:36:58.076Z,99966.98
2023-03-30T05:38:03.711Z,99961.00
2023-03-30T05:39:08.477Z,99964.44
2023-03-30T05:40:30.275Z,99955.16
2023-03-30T05:41:35.508Z,99962.86
2023-03-30T05:42:45.418Z,99959.47
2023-03-30T05:43:49.482Z,99957.00
2023-03-30T05:44:59.535Z,99948.58
2023-03-30T05:46:22.046Z,99964.77
2023-03-30T05:47:30.416Z,99957.04
2023-03-30T05:48:35.665Z,99961.31
2023-03-30T05:49:56.583Z,99966.48
2023-03-30T05:51:03.920Z,99964.81
2023-03-30T05:52:08.470Z,99958.76
2023-03-30T05:53:29.073Z,99964.70
2023-03-30T05:54:49.738Z,99963.06
2023-03-30T05:56:03.466Z,99966.41
2023-03-30T05:57:10.471Z,99968.97
2023-03-30T05:58:16.096Z,99968.09
2023-03-30T05:59:33.182Z,99968.05
2023-03-30T06:00:37.514Z,99965.58
2023-03-30T06:01:42.374Z,99963.90
2023-03-30T06:02:45.689Z,99966.48
2023-03-30T06:03:50.249Z,99960.58
2023-03-30T06:04:53.437Z,99963.20
2023-03-30T06:05:58.510Z,99967.50
2023-03-30T06:07:01.580Z,99961.52
2023-03-30T06:08:04.796Z,99969.21
2023-03-30T06:09:07.399Z,99969.21
2023-03-30T06:10:11.132Z,99966.62
2023-03-30T06:11:14.521Z,99975.19
2023-03-30T06:12:22.622Z,99972.67
2023-03-30T06:13:26.019Z,99970.98
2023-03-30T06:14:29.252Z,99981.14
2023-03-30T06:15:33.638Z,99975.19
2023-03-30T06:16:40.726Z,99968.38
2023-03-30T06:17:43.837Z,99967.53
2023-03-30T06:18:46.231Z,99978.62
2023-03-30T06:19:50.033Z,99968.45
2023-03-30T06:20:53.614Z,99978.67
2023-03-30T06:21:56.101Z,99975.28
2023-03-30T06:23:04.314Z,99965.95
2023-03-30T06:24:06.831Z,99975.30
2023-03-30T06:25:12.598Z,99972.75
2023-03-30T06:26:17.301Z,99973.59
2023-03-30T06:27:20.633Z,99984.69
2023-03-30T06:28:23.649Z,99980.39
2023-03-30T06:29:27.656Z,99976.98
2023-03-30T06:30:30.431Z,99971.03
2023-03-30T06:31:34.686Z,99975.28
2023-03-30T06:32:39.126Z,99978.73
2023-03-30T06:33:43.870Z,99972.75
2023-03-30T06:34:46.498Z,99977.02
2023-03-30T06:35:52.476Z,99982.16
2023-03-30T06:36:56.134Z,99971.91
2023-03-30T06:37:59.088Z,99969.38
2023-03-30T06:39:06.488Z,99965.97
2023-03-30T06:40:12.771Z,99978.78
2023-03-30T06:41:16.388Z,99965.08
2023-03-30T06:42:20.243Z,99980.41
2023-03-30T06:43:30.575Z,99959.16
2023-03-30T06:44:34.775Z,99971.11
2023-03-30T06:45:38.948Z,99964.28
2023-03-30T06:46:42.407Z,99995.84
2023-03-30T06:47:45.557Z,99976.25
2023-03-30T06:48:51.474Z,99989.02
2023-03-30T06:50:13.908Z,99979.64
2023-03-30T06:51:25.288Z,99973.66
2023-03-30T06:52:29.592Z,99976.20
2023-03-30T06:53:32.677Z,99964.28
2023-03-30T06:54:35.164Z,99974.53
2023-03-30T06:55:39.426Z,99974.53
2023-03-30T06:56:42.676Z,99974.53
2023-03-30T06:57:47.064Z,99979.66
2023-03-30T06:58:50.041Z,99980.51
2023-03-30T06:59:54.743Z,99974.55
2023-03-30T07:00:59.584Z,99968.57
2023-03-30T07:02:07.378Z,99972.86
2023-03-30T07:03:17.836Z,99974.55
2023-03-30T07:04:22.299Z,99980.51
2023-03-30T07:05:35.466Z,99963.47
2023-03-30T07:06:42.815Z,99973.69
2023-03-30T07:07:45.860Z,99960.86
2023-03-30T07:08:49.063Z,99972.00
2023-03-30T07:09:53.214Z,99977.13
2023-03-30T07:10:55.944Z,99970.31
2023-03-30T07:12:01.016Z,99965.21
2023-03-30T07:13:03.980Z,99967.74
2023-03-30T07:14:08.591Z,99956.67
2023-03-30T07:15:12.973Z,99960.92
2023-03-30T07:16:16.202Z,99966.90
2023-03-30T07:17:18.946Z,99949.86
2023-03-30T07:18:23.914Z,99949.86
2023-03-30T07:19:26.267Z,99958.41
2023-03-30T07:20:28.905Z,99955.00
2023-03-30T07:21:33.296Z,99965.23
2023-03-30T07:22:36.401Z,99951.62
2023-03-30T07:23:39.816Z,99963.55
2023-03-30T07:24:45.623Z,99935.42
2023-03-30T07:25:49.154Z,99943.11
2023-03-30T07:26:54.001Z,99962.73
2023-03-30T07:27:56.610Z,99956.77
2023-03-30T07:29:00.441Z,99955.89
2023-03-30T07:30:17.886Z,99961.87
2023-03-30T07:31:14.182Z,99960.16
2023-03-30T07:32:17.702Z,99959.31
2023-03-30T07:33:21.317Z,99955.05
2023-03-30T07:34:24.404Z,99966.14
2023-03-30T07:35:28.791Z,99956.77
2023-03-30T07:36:31.957Z,99943.98
2023-03-30T07:37:36.602Z,99955.07
2023-03-30T07:38:39.387Z,99937.18
2023-03-30T07:39:41.619Z,99945.67
2023-03-30T07:40:45.217Z,99959.34
2023-03-30T07:41:48.338Z,99953.35
2023-03-30T07:42:51.293Z,99949.97
2023-03-30T07:43:54.631Z,99950.81
2023-03-30T07:44:57.394Z,99965.30
2023-03-30T07:45:59.876Z,99940.58
2023-03-30T07:47:07.801Z,99943.13
2023-03-30T07:48:10.839Z,99949.97
2023-03-30T07:49:13.447Z,99938.87
2023-03-30T07:50:16.699Z,99960.19
2023-03-30T07:51:19.681Z,99951.69
2023-03-30T07:52:27.048Z,99953.36
2023-03-30T07:53:31.780Z,99961.91
2023-03-30T07:54:37.341Z,99950.83
2023-03-30T07:55:41.719Z,99940.58
2023-03-30T07:56:47.904Z,99962.75
2023-03-30T07:57:50.353Z,99945.70
2023-03-30T07:58:53.090Z,99948.27
2023-03-30T07:59:56.177Z,99957.66
2023-03-30T08:01:02.766Z,99940.58
2023-03-30T08:02:14.467Z,99946.56
2023-03-30T08:03:18.901Z,99951.69
2023-03-30T08:04:26.068Z,99941.44
2023-03-30T08:05:28.221Z,99934.61
2023-03-30T08:06:38.242Z,99930.36
2023-03-30T08:07:40.887Z,99939.73
2023-03-30T08:08:45.905Z,99936.31
2023-03-30T08:09:50.157Z,99923.52
2023-03-30T08:10:53.338Z,99926.08
2023-03-30T08:11:55.916Z,99932.07
2023-03-30T08:13:00.634Z,99928.64
2023-03-30T08:14:04.231Z,99923.53
2023-03-30T08:15:08.023Z,99920.98
2023-03-30T08:16:11.130Z,99914.98
2023-03-30T08:17:13.220Z,99932.89
2023-03-30T08:18:16.127Z,99905.61
2023-03-30T08:19:18.631Z,99916.71
2023-03-30T08:20:22.050Z,99911.58
2023-03-30T08:21:26.058Z,99903.02
2023-03-30T08:22:29.557Z,99924.38
2023-03-30T08:23:32.436Z,99897.08
2023-03-30T08:24:35.315Z,99910.71
2023-03-30T08:25:38.005Z,99916.72
2023-03-30T08:26:40.345Z,99902.19
2023-03-30T08:27:42.810Z,99917.55
2023-03-30T08:28:45.697Z,99891.95
2023-03-30T08:29:49.746Z,99898.77
2023-03-30T08:30:53.250Z,99907.28
2023-03-30T08:31:56.856Z,99906.43
2023-03-30T08:32:59.809Z,99902.19
2023-03-30T08:34:04.533Z,99885.95
2023-03-30T08:35:08.050Z,99881.70
2023-03-30T08:36:12.213Z,99902.18
2023-03-30T08:37:14.714Z,99905.56
2023-03-30T08:38:17.870Z,99891.94
2023-03-30T08:39:20.783Z,99891.92
2023-03-30T08:40:23.281Z,99898.77
2023-03-30T08:41:29.773Z,99888.52
2023-03-30T08:42:55.687Z,99891.88
2023-03-30T08:44:07.522Z,99893.59
2023-03-30T08:45:12.065Z,99918.33
2023-03-30T08:46:17.736Z,99906.41
2023-03-30T08:47:23.778Z,99891.91
2023-03-30T08:48:38.134Z,99898.75
2023-03-30T08:49:45.069Z,99890.19
2023-03-30T08:50:53.565Z,99895.33
2023-03-30T08:51:57.002Z,99893.55
2023-03-30T08:52:59.625Z,99892.69
2023-03-30T08:54:08.292Z,99886.71
2023-03-30T08:56:43.245Z,99912.27
2023-03-30T08:58:01.513Z,99897.82
2023-03-30T08:59:29.450Z,99888.45
2023-03-30T09:00:38.138Z,99895.25
2023-03-30T09:01:47.267Z,99890.11
2023-03-30T09:02:52.858Z,99883.25
2023-03-30T09:04:16.195Z,99895.19
2023-03-30T09:05:35.753Z,99883.25
2023-03-30T09:07:02.484Z,99884.06
2023-03-30T09:08:11.193Z,99891.73
2023-03-30T09:09:20.544Z,99890.06
2023-03-30T09:10:27.413Z,99890.91
2023-03-30T09:11:33.932Z,99905.34
2023-03-30T09:12:44.296Z,99886.61
2023-03-30T09:13:50.760Z,99886.63
2023-03-30T09:15:04.117Z,99884.11
2023-03-30T09:16:26.811Z,99888.32
2023-03-30T09:17:36.315Z,99889.16
2023-03-30T09:18:41.265Z,99881.48
2023-03-30T09:20:03.467Z,99871.20
2023-03-30T09:21:07.528Z,99879.75
2023-03-30T09:22:13.070Z,99889.97
2023-03-30T09:23:17.952Z,99873.66
2023-03-30T09:24:26.059Z,99881.35
2023-03-30T09:25:38.095Z,99875.39
2023-03-30T09:26:50.441Z,99879.59
2023-03-30T09:29:33.516Z,99867.45
2023-03-30T09:30:45.119Z,99864.08
2023-03-30T09:31:56.937Z,99865.79
2023-03-30T09:33:05.940Z,99869.20
2023-03-30T09:34:28.721Z,99849.50
2023-03-30T09:35:44.204Z,99862.27
2023-03-30T09:36:52.942Z,99871.64
2023-03-30T09:37:55.498Z,99857.08
2023-03-30T09:38:57.916Z,99869.00
2023-03-30T09:40:06.615Z,99859.56
2023-03-30T09:41:22.377Z,99885.20
2023-03-30T09:42:28.304Z,99853.59
2023-03-30T09:43:35.499Z,99869.85
2023-03-30T09:44:47.401Z,99874.08
2023-03-30T09:45:49.734Z,99862.92
2023-03-30T09:46:55.701Z,99848.42
2023-03-30T09:48:04.794Z,99846.64
2023-03-30T09:49:16.849Z,99836.19
2023-03-30T09:50:28.107Z,99844.81
2023-03-30T09:51:31.453Z,99843.09
2023-03-30T09:52:38.176Z,99848.23
2023-03-30T09:53:43.625Z,99839.69
2023-03-30T09:54:46.000Z,99836.26
2023-03-30T09:56:03.780Z,99851.63
2023-03-30T09:57:25.191Z,99843.88
2023-03-30T09:58:35.590Z,99832.70
2023-03-30T09:59:38.001Z,99834.47
2023-03-30T10:00:41.556Z,99836.24
2023-03-30T10:01:43.951Z,99843.88
2023-03-30T10:02:55.557Z,99829.32
2023-03-30T10:04:11.503Z,99833.55
2023-03-30T10:05:17.548Z,99835.95
2023-03-30T10:06:21.056Z,99823.11
2023-03-30T10:07:29.576Z,99824.74
2023-03-30T10:08:32.644Z,99825.54
2023-03-30T10:09:39.070Z,99821.22
2023-03-30T10:10:42.138Z,99821.27
2023-03-30T10:11:47.495Z,99826.42
2023-03-30T10:12:51.017Z,99818.59
2023-03-30T10:13:53.917Z,99821.16
2023-03-30T10:15:03.574Z,99821.16
2023-03-30T10:16:13.319Z,99816.03
2023-03-30T10:17:22.558Z,99818.44
2023-03-30T10:18:28.908Z,99829.58
2023-03-30T10:19:36.969Z,99807.43
2023-03-30T10:20:39.213Z,99824.55
2023-03-30T10:21:43.547Z,99822.84
2023-03-30T10:22:52.529Z,99844.21
2023-03-30T10:24:07.988Z,99819.33
2023-03-30T10:25:13.915Z,99807.38
2023-03-30T10:26:19.568Z,99814.27
2023-03-30T10:27:28.568Z,99806.48
2023-03-30T10:28:34.079Z,99809.78
2023-03-30T10:29:36.672Z,99845.68
2023-03-30T10:30:39.455Z,99809.61
2023-03-30T10:33:01.703Z,99807.73
2023-03-30T10:34:07.445Z,99810.45
2023-03-30T10:35:10.647Z,99814.55
2023-03-30T10:36:17.249Z,99810.34
2023-03-30T10:37:32.386Z,99814.67
2023-03-30T10:38:35.255Z,99813.02
2023-03-30T10:39:40.612Z,99822.47
2023-03-30T10:40:44.515Z,99809.50
2023-03-30T10:41:49.743Z,99811.26
2023-03-30T10:42:56.564Z,99814.67
2023-03-30T10:44:11.861Z,99813.83
2023-03-30T10:45:18.227Z,99812.97
2023-03-30T10:46:24.032Z,99808.52
2023-03-30T10:48:00.187Z,99816.02
2023-03-30T10:49:11.684Z,99814.30
2023-03-30T10:50:35.866Z,99817.63
2023-03-30T10:51:50.750Z,99811.86
2023-03-30T10:53:06.299Z,99804.27
2023-03-30T10:54:17.700Z,99829.98
2023-03-30T10:56:50.837Z,99808.20
2023-03-30T10:59:25.908Z,99810.64
2023-03-30T11:01:58.246Z,99808.84
2023-03-30T11:03:11.415Z,99807.30
2023-03-30T11:05:35.128Z,99802.30
2023-03-30T11:06:41.568Z,99808.57
2023-03-30T11:08:02.498Z,99811.11
2023-03-30T11:09:08.472Z,99793.16
2023-03-30T11:10:21.837Z,99791.36
2023-03-30T11:11:37.228Z,99792.22
2023-03-30T11:12:46.114Z,99784.43
2023-03-30T11:13:55.630Z,99800.63
2023-03-30T11:15:01.411Z,99805.02
2023-03-30T11:16:14.851Z,99795.59
2023-03-30T11:17:27.926Z,99790.45
2023-03-30T11:18:51.108Z,99790.34
2023-03-30T11:19:56.521Z,99811.77
2023-03-30T11:21:11.542Z,99804.88
2023-03-30T11:23:55.265Z,99773.41
2023-03-30T11:24:58.976Z,99786.56
2023-03-30T11:26:09.958Z,99782.20
2023-03-30T11:27:38.156Z,99776.11
2023-03-30T11:28:46.212Z,99795.52
2023-03-30T11:30:09.953Z,99782.84
2023-03-30T11:32:59.189Z,99778.16
2023-03-30T11:34:16.206Z,99781.94
2023-03-30T11:35:43.232Z,99782.01
2023-03-30T11:37:10.478Z,99765.88
2023-03-30T11:38:16.812Z,99768.18
2023-03-30T11:39:31.627Z,99773.09
2023-03-30T11:40:30.077Z,99774.63
2023-03-30T11:41:42.153Z,99772.87
2023-03-30T11:42:47.269Z,99770.17
2023-03-30T11:43:51.840Z,99774.55
2023-03-30T11:44:54.712Z,99771.09
2023-03-30T11:46:04.278Z,99769.21
2023-03-30T11:47:33.738Z,99770.00
2023-03-30T11:48:45.661Z,99757.84
2023-03-30T11:50:12.956Z,99766.15
2023-03-30T11:52:56.486Z,99775.62
2023-03-30T11:54:17.423Z,99779.13
2023-03-30T11:55:30.262Z,99771.17
2023-03-30T11:56:48.569Z,99764.06
2023-03-30T11:58:11.821Z,99761.39
2023-03-30T11:59:29.644Z,99761.89
2023-03-30T12:00:50.587Z,99764.08
2023-03-30T12:02:03.468Z,99790.64
2023-03-30T12:03:09.373Z,99766.27
2023-03-30T12:04:18.142Z,99770.25
2023-03-30T12:05:24.098Z,99773.77
2023-03-30T12:06:30.459Z,99771.42
2023-03-30T12:07:49.269Z,99770.31
2023-03-30T12:09:06.676Z,99755.45
2023-03-30T12:10:18.309Z,99765.52
2023-03-30T12:11:41.400Z,99763.80
2023-03-30T12:12:45.723Z,99758.02
2023-03-30T12:13:51.873Z,99758.51
2023-03-30T12:15:06.598Z,99749.51
2023-03-30T12:16:15.899Z,99749.02
2023-03-30T12:17:34.718Z,99739.52
2023-03-30T12:18:41.818Z,99751.95
2023-03-30T12:20:09.466Z,99754.06
2023-03-30T12:21:31.230Z,99746.48
2023-03-30T12:22:45.490Z,99759.25
2023-03-30T12:23:51.451Z,99773.20
2023-03-30T12:25:07.280Z,99757.52
2023-03-30T12:26:31.152Z,99771.85
2023-03-30T12:27:37.766Z,99756.94
2023-03-30T12:29:36.125Z,99753.12
2023-03-30T12:30:11.899Z,99749.86
2023-03-30T12:31:15.160Z,99740.94
2023-03-30T12:32:24.630Z,99749.48
2023-03-30T12:33:36.413Z,99743.97
2023-03-30T12:34:40.969Z,99743.56
2023-03-30T12:35:52.970Z,99742.73
2023-03-30T12:38:26.734Z,99736.48
2023-03-30T12:39:32.851Z,99751.66
2023-03-30T12:40:37.413Z,99747.70
2023-03-30T12:41:47.607Z,99744.66
2023-03-30T12:42:56.492Z,99746.49
2023-03-30T12:44:13.206Z,99737.22
2023-03-30T12:45:25.697Z,99735.11
2023-03-30T12:46:41.455Z,99729.44
2023-03-30T12:48:05.930Z,99734.94
2023-03-30T12:49:11.939Z,99728.73
2023-03-30T12:50:30.879Z,99732.97
2023-03-30T12:51:43.350Z,99757.97
2023-03-30T12:52:55.259Z,99739.94
2023-03-30T12:54:16.308Z,99737.23
2023-03-30T12:55:22.140Z,99753.30
2023-03-30T12:56:54.419Z,99742.72
2023-03-30T12:58:26.326Z,99739.63
2023-03-30T12:59:49.556Z,99744.28
2023-03-30T13:01:26.597Z,99742.71
2023-03-30T13:02:32.610Z,99735.95
2023-03-30T13:03:38.899Z,99727.84
2023-03-30T13:04:46.004Z,99733.69
2023-03-30T13:05:53.139Z,99734.72
2023-03-30T13:06:59.195Z,99739.43
2023-03-30T13:08:05.079Z,99727.73
2023-03-30T13:09:14.158Z,99733.89
2023-03-30T13:10:36.204Z,99724.42
2023-03-30T13:11:57.303Z,99742.80
2023-03-30T13:13:02.829Z,99738.97
2023-03-30T13:14:17.996Z,99732.09
2023-03-30T13:15:35.174Z,99721.48
2023-03-30T13:16:48.973Z,99729.98
2023-03-30T13:17:59.824Z,99723.75
2023-03-30T13:20:36.273Z,99708.91
2023-03-30T13:21:52.885Z,99718.37
2023-03-30T13:23:09.569Z,99718.23
2023-03-30T13:24:28.390Z,99722.17
2023-03-30T13:25:58.025Z,99709.91
2023-03-30T13:27:28.998Z,99720.95
2023-03-30T13:29:00.800Z,99713.98
2023-03-30T13:30:14.388Z,99716.37
2023-03-30T13:31:24.521Z,99719.27
2023-03-30T13:32:33.617Z,99722.66
2023-03-30T13:33:39.868Z,99712.63
2023-03-30T13:35:03.160Z,99718.27
2023-03-30T13:36:16.223Z,99705.43
2023-03-30T13:37:43.749Z,99711.56
2023-03-30T13:39:07.986Z,99702.44
2023-03-30T13:41:52.599Z,99713.30
2023-03-30T13:43:10.439Z,99701.33
2023-03-30T13:44:43.732Z,99705.49
2023-03-30T13:47:22.478Z,99698.91
2023-03-30T13:48:52.673Z,99699.17
2023-03-30T13:50:03.348Z,99691.78
2023-03-30T13:51:08.922Z,99694.28
2023-03-30T13:52:14.724Z,99691.02
2023-03-30T13:53:20.397Z,99693.05
2023-03-30T13:54:29.694Z,99705.12
2023-03-30T13:55:37.821Z,99690.45
2023-03-30T13:56:43.685Z,99687.41
2023-03-30T13:57:46.253Z,99689.56
2023-03-30T13:58:52.099Z,99697.83
2023-03-30T14:00:00.952Z,99699.67
2023-03-30T14:01:09.549Z,99690.66
2023-03-30T14:02:16.426Z,99694.27
2023-03-30T14:04:48.322Z,99697.74